Time;durP1;ratioP1;P1;durP2;ratioP2;P2;SDS_P1;SDS_P2;PMS_P1;PMS_P2;Temp;Humidity;BMP_temperature;BMP_pressure;BME280_temperature;BME280_humidity;BME280_pressure;Samples;Min_cycle;Max_cycle;Signal;HPM_P1;HPM_P2
2023/07/27 00:00:54;;;;;;;16.80;5.60;;;;;;;22.48;53.10;98345.21;67727;1279;1018057;-64
2023/07/27 00:04:06;;;;;;;21.10;5.70;;;;;;;22.67;52.60;98335.92;67679;1279;1016164;-65
2023/07/27 00:07:08;;;;;;;;;;;;;;;22.81;52.26;98332.95;67739;1279;1016422;-63
2023/07/27 00:10:11;;;;;;;20.20;5.90;;;;;;;22.76;52.35;98334.73;67778;1279;1018521;-64
2023/07/27 00:13:13;;;;;;;18.80;5.80;;;;;;;22.65;52.65;98335.30;67759;1279;1016079;-64
2023/07/27 00:16:15;;;;;;;19.10;5.50;;;;;;;22.53;53.01;98343.55;67760;1279;1017070;-65
2023/07/27 00:19:18;;;;;;;20.80;5.40;;;;;;;22.51;53.11;98344.88;67728;1279;1015825;-63
2023/07/27 00:22:20;;;;;;;18.70;5.00;;;;;;;22.54;52.86;98337.16;67729;1279;1016406;-63
2023/07/27 00:25:23;;;;;;;18.00;5.00;;;;;;;22.56;52.73;98336.70;67748;1279;1016666;-64
2023/07/27 00:28:25;;;;;;;18.50;5.30;;;;;;;22.54;52.92;98342.83;67735;1279;1016452;-65
2023/07/27 00:31:28;;;;;;;19.80;5.30;;;;;;;22.69;52.63;98344.27;67737;1279;1016324;-66
2023/07/27 00:34:31;;;;;;;21.40;5.70;;;;;;;22.70;52.64;98341.13;67686;1279;1015626;-64
2023/07/27 00:37:33;;;;;;;16.80;5.50;;;;;;;22.60;53.09;98344.98;67715;1279;1016280;-65
2023/07/27 00:40:35;;;;;;;20.70;6.40;;;;;;;22.56;53.33;98346.33;67728;1279;1016497;-65
2023/07/27 00:43:38;;;;;;;21.40;7.00;;;;;;;22.71;52.99;98353.12;67771;1279;1016500;-63
2023/07/27 00:46:40;;;;;;;23.50;7.10;;;;;;;22.68;53.01;98349.30;67761;1279;1016382;-64
2023/07/27 00:49:42;;;;;;;20.40;6.30;;;;;;;22.60;53.35;98352.83;67784;1279;1018121;-64
2023/07/27 00:52:45;;;;;;;21.90;6.70;;;;;;;22.67;53.18;98348.75;67718;1279;1016860;-65
2023/07/27 00:55:47;;;;;;;17.60;5.90;;;;;;;22.81;52.79;98339.65;67741;1279;1016471;-64
2023/07/27 00:58:50;;;;;;;22.30;7.00;;;;;;;22.68;53.04;98351.36;67763;1279;1018433;-64
2023/07/27 01:01:52;;;;;;;18.90;6.50;;;;;;;22.78;52.81;98357.29;67802;1279;1018427;-65
2023/07/27 01:04:54;;;;;;;21.40;6.70;;;;;;;22.83;52.56;98363.09;67786;1279;1017191;-65
2023/07/27 01:07:57;;;;;;;21.10;6.40;;;;;;;22.59;53.23;98362.64;67777;1279;1016594;-65
2023/07/27 01:10:59;;;;;;;21.00;6.20;;;;;;;22.66;53.06;98369.22;67726;1279;1016302;-65
2023/07/27 01:14:01;;;;;;;17.90;6.00;;;;;;;22.67;53.04;98379.45;67746;1279;1016393;-66
2023/07/27 01:17:04;;;;;;;20.90;6.20;;;;;;;22.65;53.14;98378.27;67739;1279;1017113;-66
2023/07/27 01:20:06;;;;;;;19.20;6.00;;;;;;;22.70;53.00;98383.73;67771;1279;1016039;-64
2023/07/27 01:23:09;;;;;;;17.00;6.00;;;;;;;22.38;53.81;98381.41;67733;1279;1017256;-65
2023/07/27 01:26:11;;;;;;;21.30;5.90;;;;;;;22.42;53.75;98386.01;67724;1279;1016394;-65
2023/07/27 01:29:13;;;;;;;21.60;6.10;;;;;;;22.55;53.29;98387.12;67733;1279;1016653;-65
2023/07/27 01:32:16;;;;;;;19.90;6.20;;;;;;;22.40;53.67;98392.23;67727;1279;1016411;-66
2023/07/27 01:35:18;;;;;;;19.70;5.90;;;;;;;22.50;53.36;98393.06;67762;1279;1016500;-65
2023/07/27 01:38:20;;;;;;;19.90;6.50;;;;;;;22.55;53.05;98391.77;67805;1279;1016481;-65
2023/07/27 01:41:23;;;;;;;21.80;6.50;;;;;;;22.39;53.65;98384.48;67795;1279;1016147;-65
2023/07/27 01:44:26;;;;;;;19.40;6.30;;;;;;;22.52;53.16;98381.11;67716;1279;1018497;-66
2023/07/27 01:47:28;;;;;;;21.40;6.50;;;;;;;22.61;52.79;98384.59;67780;1279;1016588;-65
2023/07/27 01:50:30;;;;;;;22.00;6.10;;;;;;;22.54;52.94;98387.38;67784;1279;1016445;-64
2023/07/27 01:53:33;;;;;;;19.20;6.40;;;;;;;22.43;53.22;98390.79;67743;1279;1016301;-65
2023/07/27 01:56:35;;;;;;;21.80;6.20;;;;;;;22.67;52.30;98391.95;67742;1279;1016280;-64
2023/07/27 01:59:37;;;;;;;22.60;6.40;;;;;;;22.32;53.23;98394.98;67714;1279;1016464;-66
2023/07/27 02:02:40;;;;;;;16.70;5.70;;;;;;;21.69;55.05;98403.23;67775;1279;1016413;-66
2023/07/27 02:05:42;;;;;;;20.20;6.10;;;;;;;21.76;55.05;98405.30;67782;1279;1016218;-63
2023/07/27 02:08:45;;;;;;;19.10;6.00;;;;;;;22.19;53.78;98399.28;67792;1279;1016426;-66
2023/07/27 02:11:47;;;;;;;18.70;5.70;;;;;;;22.12;53.83;98406.23;67728;1279;1017146;-66
2023/07/27 02:14:49;;;;;;;18.30;6.10;;;;;;;22.12;53.96;98417.85;67724;1279;1016992;-66
2023/07/27 02:17:52;;;;;;;25.00;6.90;;;;;;;22.16;53.80;98424.44;67739;1279;1016149;-65
2023/07/27 02:20:54;;;;;;;20.70;6.80;;;;;;;22.23;53.56;98419.69;67767;1279;1016374;-65
2023/07/27 02:23:57;;;;;;;19.80;6.90;;;;;;;22.05;54.00;98415.67;67777;1279;1017379;-66
2023/07/27 02:26:59;;;;;;;22.30;6.80;;;;;;;21.96;54.16;98413.66;67798;1279;1016477;-66
2023/07/27 02:30:01;;;;;;;20.90;6.40;;;;;;;22.21;53.48;98418.88;67725;1279;1016454;-66
2023/07/27 02:33:04;;;;;;;22.50;6.50;;;;;;;22.21;53.35;98424.00;67688;1279;1016631;-65
2023/07/27 02:36:06;;;;;;;18.20;6.30;;;;;;;22.29;53.16;98426.13;67772;1279;1016491;-65
2023/07/27 02:39:08;;;;;;;21.60;7.00;;;;;;;22.06;53.91;98430.55;67782;1279;1016446;-66
2023/07/27 02:42:11;;;;;;;21.60;6.70;;;;;;;22.21;53.35;98436.84;67799;1279;1016358;-65
2023/07/27 02:45:13;;;;;;;;;;;;;;;22.01;53.77;98433.55;67767;1279;1016426;-65
2023/07/27 02:48:16;;;;;;;22.60;7.10;;;;;;;21.90;54.03;98435.48;67720;1279;1016293;-65
2023/07/27 02:51:18;;;;;;;21.90;6.70;;;;;;;21.60;54.93;98442.43;67746;1279;1016446;-65
2023/07/27 02:54:21;;;;;;;;;;;;;;;21.95;53.84;98448.13;67798;1279;1016725;-65
2023/07/27 02:57:23;;;;;;;20.30;6.40;;;;;;;22.06;53.17;98454.14;67795;1279;1015806;-64
2023/07/27 03:00:25;;;;;;;20.10;6.50;;;;;;;21.81;53.62;98456.29;67769;1279;1016373;-65
2023/07/27 03:03:28;;;;;;;17.80;5.90;;;;;;;22.00;52.74;98462.86;67787;1279;1016727;-62
2023/07/27 03:06:30;;;;;;;22.00;6.30;;;;;;;21.96;52.61;98462.98;67741;1279;1016420;-65
2023/07/27 03:09:32;;;;;;;21.80;6.90;;;;;;;21.71;53.37;98473.77;67716;1279;1016503;-65
2023/07/27 03:12:35;;;;;;;17.60;5.70;;;;;;;21.70;53.02;98473.02;67755;1279;1016484;-65
2023/07/27 03:15:37;;;;;;;22.40;6.60;;;;;;;21.39;53.62;98469.91;67746;1279;1016856;-64
2023/07/27 03:18:39;;;;;;;22.30;6.00;;;;;;;21.36;53.60;98470.42;67790;1279;1016510;-65
2023/07/27 03:21:43;;;;;;;18.50;5.40;;;;;;;21.28;53.40;98472.00;67769;1279;1016411;-63
2023/07/27 03:24:45;;;;;;;22.10;5.50;;;;;;;21.35;52.87;98474.20;67730;1279;1016036;-66
2023/07/27 03:27:47;;;;;;;18.60;5.40;;;;;;;21.37;52.65;98473.64;67777;1279;1016411;-64
2023/07/27 03:30:50;;;;;;;14.50;5.00;;;;;;;21.40;52.65;98473.34;67783;1279;1016506;-65
2023/07/27 03:33:52;;;;;;;17.60;5.00;;;;;;;21.49;52.25;98476.26;67740;1279;1016166;-65
2023/07/27 03:36:55;;;;;;;19.30;5.50;;;;;;;21.66;52.03;98480.59;67755;1279;1016182;-66
2023/07/27 03:39:57;;;;;;;17.30;4.80;;;;;;;21.52;51.79;98488.02;67763;1279;1016204;-66
2023/07/27 03:42:59;;;;;;;16.40;5.20;;;;;;;21.34;52.35;98492.30;67730;1279;1016271;-65
2023/07/27 03:46:02;;;;;;;17.50;5.20;;;;;;;21.54;51.99;98485.84;67802;1279;1016263;-65
2023/07/27 03:49:04;;;;;;;18.20;5.40;;;;;;;21.30;52.75;98484.21;67794;1279;1015909;-66
2023/07/27 03:52:06;;;;;;;22.30;6.10;;;;;;;21.64;52.28;98480.27;67820;1256;1016430;-65
2023/07/27 03:55:09;;;;;;;24.00;7.30;;;;;;;21.99;50.83;98479.85;67746;1279;1016303;-65
2023/07/27 03:58:11;;;;;;;24.80;7.80;;;;;;;22.12;50.64;98478.28;67718;1279;1016211;-65
2023/07/27 04:01:14;;;;;;;24.80;7.30;;;;;;;22.22;50.35;98480.83;67736;1279;1016503;-65
2023/07/27 04:04:16;;;;;;;17.80;5.70;;;;;;;22.60;49.92;98488.10;67797;1279;1016479;-64
2023/07/27 04:07:18;;;;;;;20.50;6.10;;;;;;;22.96;48.80;98491.73;67784;1279;1018003;-64
2023/07/27 04:10:21;;;;;;;18.70;5.90;;;;;;;22.78;49.34;98493.87;67762;1279;1015882;-65
2023/07/27 04:13:23;;;;;;;17.50;5.10;;;;;;;22.78;48.74;98498.05;67747;1279;1017065;-64
2023/07/27 04:16:26;;;;;;;20.80;5.60;;;;;;;22.60;48.87;98495.78;67747;1279;1016310;-65
2023/07/27 04:19:28;;;;;;;19.00;5.20;;;;;;;22.69;49.17;98496.44;67770;1279;1016614;-66
2023/07/27 04:22:30;;;;;;;16.30;5.50;;;;;;;22.35;49.37;98508.61;67779;1279;1016458;-65
2023/07/27 04:25:33;;;;;;;19.80;5.00;;;;;;;22.47;49.08;98508.30;67793;1279;1017116;-65
2023/07/27 04:28:35;;;;;;;;;;;;;;;22.18;49.85;98511.63;67770;1279;1016275;-63
2023/07/27 04:31:38;;;;;;;17.70;4.80;;;;;;;22.26;49.47;98509.66;67730;1279;1016304;-65
2023/07/27 04:34:40;;;;;;;17.70;4.50;;;;;;;21.94;50.01;98514.11;67735;1279;1016369;-66
2023/07/27 04:37:42;;;;;;;17.50;4.90;;;;;;;21.92;50.36;98513.59;67787;1279;1016256;-65
2023/07/27 04:40:45;;;;;;;17.20;4.60;;;;;;;22.12;50.21;98513.70;67783;1279;1019168;-65
2023/07/27 04:43:47;;;;;;;19.70;4.70;;;;;;;22.20;49.87;98508.35;67805;1279;1016459;-66
2023/07/27 04:46:49;;;;;;;15.20;4.00;;;;;;;22.72;49.39;98510.05;67763;1279;1016482;-65
2023/07/27 04:49:52;;;;;;;15.00;4.20;;;;;;;23.10;48.41;98512.15;67757;1279;1016126;-65
2023/07/27 04:52:54;;;;;;;15.70;4.10;;;;;;;22.99;48.40;98516.43;67735;1279;1016376;-65
2023/07/27 04:55:57;;;;;;;16.20;3.70;;;;;;;22.80;48.57;98516.98;67781;1279;1016230;-66
2023/07/27 04:58:59;;;;;;;14.40;3.90;;;;;;;22.86;48.80;98514.05;67786;1279;1016207;-66
2023/07/27 05:02:02;;;;;;;14.00;4.20;;;;;;;22.96;48.53;98513.16;67770;1279;1015900;-65
2023/07/27 05:05:04;;;;;;;;;;;;;;;22.79;48.03;98519.92;67753;1279;1016214;-65
2023/07/27 05:08:06;;;;;;;14.50;4.60;;;;;;;22.69;48.43;98514.45;67743;1279;1019128;-65
2023/07/27 05:11:09;;;;;;;17.80;4.60;;;;;;;22.74;48.46;98523.50;67782;1279;1016077;-63
2023/07/27 05:14:11;;;;;;;;;;;;;;;22.75;48.47;98523.08;67793;1279;1017159;-64
2023/07/27 05:17:14;;;;;;;15.10;4.00;;;;;;;22.80;48.00;98523.89;67782;1279;1016332;-63
2023/07/27 05:20:16;;;;;;;;;;;;;;;22.96;47.75;98522.73;67755;1279;1016295;-65
2023/07/27 05:23:19;;;;;;;16.00;4.10;;;;;;;23.02;47.92;98520.06;67744;1279;1016168;-64
2023/07/27 05:26:21;;;;;;;14.90;4.20;;;;;;;23.02;47.48;98521.30;67798;1279;1016471;-64
2023/07/27 05:29:23;;;;;;;14.50;3.90;;;;;;;23.03;47.55;98522.45;67788;1279;1016184;-65
2023/07/27 05:32:26;;;;;;;15.90;4.50;;;;;;;23.05;47.36;98522.88;67758;1279;1016481;-65
2023/07/27 05:35:29;;;;;;;15.20;4.50;;;;;;;23.06;47.33;98527.30;67759;1279;1016414;-65
2023/07/27 05:38:31;;;;;;;;;;;;;;;23.36;47.05;98530.74;67781;1279;1016423;-66
2023/07/27 05:41:33;;;;;;;14.90;4.20;;;;;;;23.49;47.26;98535.98;67789;1279;1016462;-64
2023/07/27 05:44:36;;;;;;;15.90;4.00;;;;;;;23.48;46.62;98535.39;67800;1279;1016372;-64
2023/07/27 05:47:38;;;;;;;21.70;4.70;;;;;;;23.16;46.93;98538.42;67733;1279;1016301;-65
2023/07/27 05:50:40;;;;;;;16.40;4.00;;;;;;;23.38;47.55;98538.67;67783;1279;1016111;-64
2023/07/27 05:53:44;;;;;;;20.00;4.60;;;;;;;23.38;47.69;98537.77;67794;1279;1016413;-66
2023/07/27 05:56:47;;;;;;;15.00;4.50;;;;;;;23.54;46.71;98538.71;67771;1279;1016921;-65
2023/07/27 05:59:49;;;;;;;20.10;4.20;;;;;;;23.53;46.68;98532.82;67762;1279;1016490;-63
2023/07/27 06:02:51;;;;;;;13.20;3.80;;;;;;;23.50;46.75;98534.02;67799;1279;1016833;-61
2023/07/27 06:05:54;;;;;;;;;;;;;;;23.51;47.01;98539.56;67795;1279;1016433;-64
2023/07/27 06:08:56;;;;;;;16.00;4.90;;;;;;;23.52;47.01;98546.37;67711;1279;1016824;-65
2023/07/27 06:11:59;;;;;;;15.10;4.20;;;;;;;23.78;46.85;98547.35;67757;1279;1016007;-65
2023/07/27 06:15:01;;;;;;;16.40;4.00;;;;;;;23.92;46.54;98537.24;67763;1279;1016099;-62
2023/07/27 06:18:04;;;;;;;14.80;3.90;;;;;;;23.77;46.39;98543.63;67802;1279;1016325;-64
2023/07/27 06:21:06;;;;;;;14.50;4.10;;;;;;;23.37;46.55;98541.33;67724;1279;1018142;-66
2023/07/27 06:24:09;;;;;;;15.40;4.20;;;;;;;23.58;47.03;98538.84;67741;1279;1015835;-66
2023/07/27 06:27:11;;;;;;;20.30;5.10;;;;;;;23.86;46.06;98540.67;67820;1279;1016206;-65
2023/07/27 06:30:15;;;;;;;18.70;4.10;;;;;;;23.86;47.04;98546.42;67774;1279;1016500;-65
2023/07/27 06:33:17;;;;;;;19.80;4.10;;;;;;;23.83;46.33;98546.05;67808;1279;1017108;-63
2023/07/27 06:36:20;;;;;;;12.50;3.80;;;;;;;24.04;46.51;98541.18;67780;1279;1015947;-65
2023/07/27 06:39:22;;;;;;;;;;;;;;;24.02;46.29;98539.56;67604;1279;1016225;-63
2023/07/27 06:42:25;;;;;;;12.90;3.40;;;;;;;24.27;46.11;98536.77;67779;1279;1015831;-64
2023/07/27 06:45:27;;;;;;;;;;;;;;;24.43;45.50;98532.45;67769;1279;1016414;-65
2023/07/27 06:48:30;;;;;;;14.00;3.70;;;;;;;24.52;45.15;98534.23;67765;1279;1016290;-63
2023/07/27 06:51:32;;;;;;;13.10;3.50;;;;;;;24.55;45.19;98537.08;67739;1279;1016252;-65
2023/07/27 06:54:35;;;;;;;;;;;;;;;24.94;45.34;98533.88;67746;1279;1016360;-64
2023/07/27 06:57:37;;;;;;;;;;;;;;;25.04;44.76;98540.69;67809;1279;1016398;-65
2023/07/27 07:00:41;;;;;;;18.70;3.80;;;;;;;25.09;44.48;98539.52;67767;1257;1016045;-62
2023/07/27 07:03:43;;;;;;;9.00;2.80;;;;;;;25.34;44.20;98536.23;67807;1279;1016059;-66
2023/07/27 07:06:46;;;;;;;;;;;;;;;25.15;44.01;98535.81;67776;1279;1016448;-63
2023/07/27 07:09:50;;;;;;;11.90;3.00;;;;;;;25.15;43.59;98539.20;67816;1279;1016354;-65
2023/07/27 07:12:53;;;;;;;14.50;3.70;;;;;;;25.29;43.73;98543.11;67711;1279;1016403;-65
2023/07/27 07:15:55;;;;;;;12.00;3.40;;;;;;;25.46;43.11;98541.06;67740;1279;1016482;-65
2023/07/27 07:18:58;;;;;;;11.90;3.20;;;;;;;25.32;43.99;98543.63;67785;1279;1016381;-66
2023/07/27 07:22:00;;;;;;;;;;;;;;;25.42;43.64;98543.55;67821;1279;1017994;-63
2023/07/27 07:25:03;;;;;;;;;;;;;;;25.40;43.17;98547.25;67727;1279;1016496;-62
2023/07/27 07:28:05;;;;;;;10.70;3.30;;;;;;;25.49;43.07;98548.22;67767;1279;1016499;-62
2023/07/27 07:31:08;;;;;;;;;;;;;;;25.54;43.37;98549.21;67784;1279;1016238;-62
2023/07/27 07:34:10;;;;;;;16.00;3.60;;;;;;;25.60;42.94;98555.23;67753;1279;1016439;-63
2023/07/27 07:37:13;;;;;;;;;;;;;;;25.67;42.47;98558.28;67732;1279;1018138;-66
2023/07/27 07:40:17;;;;;;;10.70;3.20;;;;;;;25.94;42.82;98558.02;67702;1279;1016643;-65
2023/07/27 07:43:19;;;;;;;9.40;2.90;;;;;;;26.21;42.59;98549.94;67729;1256;1016162;-66
2023/07/27 07:46:22;;;;;;;10.30;2.90;;;;;;;26.17;41.26;98548.10;67701;1280;1016306;-66
2023/07/27 07:49:24;;;;;;;16.70;3.20;;;;;;;26.39;41.60;98552.76;67664;1280;1016449;-66
2023/07/27 07:52:27;;;;;;;12.90;3.20;;;;;;;26.40;41.53;98553.39;67641;1281;1016710;-66
2023/07/27 07:55:29;;;;;;;8.60;2.70;;;;;;;26.71;40.85;98553.63;67634;1280;1016303;-67
2023/07/27 07:58:32;;;;;;;7.50;2.80;;;;;;;26.61;39.84;98555.66;67671;1281;1019147;-66
2023/07/27 08:01:34;;;;;;;11.10;3.00;;;;;;;26.73;40.61;98558.37;67692;1280;1016202;-64
2023/07/27 08:04:37;;;;;;;15.30;3.00;;;;;;;26.49;39.36;98560.52;67626;1280;1018333;-65
2023/07/27 08:07:40;;;;;;;12.10;3.10;;;;;;;26.48;39.92;98559.48;67645;1281;1016468;-66
2023/07/27 08:10:42;;;;;;;8.30;2.60;;;;;;;26.71;39.22;98564.58;67675;1280;1016201;-66
2023/07/27 08:13:44;;;;;;;11.30;2.80;;;;;;;26.91;38.21;98561.13;67641;1280;1018352;-65
2023/07/27 08:16:47;;;;;;;12.50;2.70;;;;;;;27.05;38.85;98557.82;67636;1280;1016381;-65
2023/07/27 08:19:50;;;;;;;11.30;2.60;;;;;;;27.10;39.10;98559.67;67649;1280;1017472;-65
2023/07/27 08:22:52;;;;;;;11.40;2.90;;;;;;;26.82;37.58;98557.14;67670;1280;1016467;-65
2023/07/27 08:25:55;;;;;;;11.10;3.40;;;;;;;26.88;38.70;98555.61;67625;1280;1018932;-65
2023/07/27 08:28:57;;;;;;;8.40;2.40;;;;;;;27.31;38.64;98551.90;67659;1280;1016337;-66
2023/07/27 08:32:00;;;;;;;7.90;2.50;;;;;;;26.82;37.74;98554.27;67694;1280;1017313;-65
2023/07/27 08:35:03;;;;;;;7.00;2.40;;;;;;;26.69;37.80;98552.58;67654;1280;1016486;-66
2023/07/27 08:38:05;;;;;;;7.20;2.70;;;;;;;26.79;39.18;98542.89;67649;1281;1015971;-65
2023/07/27 08:41:08;;;;;;;8.40;2.50;;;;;;;27.08;37.76;98541.95;67659;1280;1016442;-66
2023/07/27 08:44:11;;;;;;;11.20;2.40;;;;;;;27.61;36.53;98537.94;67665;1280;1016055;-67
2023/07/27 08:47:13;;;;;;;9.40;2.70;;;;;;;27.53;35.81;98528.43;67623;1280;1018110;-64
2023/07/27 08:50:18;;;;;;;8.10;2.40;;;;;;;27.60;35.85;98526.39;67677;1281;1016535;-67
2023/07/27 08:53:22;;;;;;;8.00;2.20;;;;;;;27.87;35.43;98522.91;67626;1281;1019789;-65
2023/07/27 08:56:24;;;;;;;8.10;2.00;;;;;;;28.18;34.67;98530.52;67703;1281;1016488;-65
2023/07/27 08:59:27;;;;;;;5.60;1.90;;;;;;;28.02;35.06;98533.73;67647;1280;1016517;-65
2023/07/27 09:02:29;;;;;;;7.80;1.80;;;;;;;28.30;35.16;98527.46;67592;1280;1018844;-65
2023/07/27 09:05:33;;;;;;;7.70;2.20;;;;;;;28.48;33.94;98532.89;67657;1280;1017574;-66
2023/07/27 09:08:35;;;;;;;5.30;2.00;;;;;;;28.96;34.48;98525.19;67650;1280;1016294;-66
2023/07/27 09:11:38;;;;;;;6.60;2.10;;;;;;;28.93;34.12;98520.80;67687;1279;1016517;-66
2023/07/27 09:14:41;;;;;;;6.90;2.40;;;;;;;29.01;34.55;98521.86;67767;1279;1016476;-64
2023/07/27 09:17:43;;;;;;;4.80;1.70;;;;;;;28.98;33.56;98519.82;67755;1279;1016579;-65
2023/07/27 09:20:45;;;;;;;7.50;2.30;;;;;;;28.50;33.41;98526.30;67755;1279;1016338;-65
2023/07/27 09:23:48;;;;;;;7.80;2.00;;;;;;;28.16;34.32;98527.34;67757;1279;1016430;-64
2023/07/27 09:26:51;;;;;;;8.40;2.20;;;;;;;28.23;34.13;98527.58;67775;1279;1018202;-66
2023/07/27 09:29:53;;;;;;;4.90;2.00;;;;;;;28.90;33.63;98524.92;67754;1279;1016142;-65
2023/07/27 09:32:58;;;;;;;6.80;2.30;;;;;;;29.15;32.53;98519.70;67756;1279;1016898;-66
2023/07/27 09:36:03;;;;;;;8.70;1.80;;;;;;;29.10;33.67;98526.08;67761;1279;1016196;-66
2023/07/27 09:39:05;;;;;;;6.60;2.20;;;;;;;28.46;33.08;98524.19;67762;1279;1016444;-63
2023/07/27 09:42:08;;;;;;;10.00;1.90;;;;;;;28.56;33.26;98513.71;67730;1279;1016441;-66
2023/07/27 09:45:11;;;;;;;6.90;2.10;;;;;;;28.73;33.58;98510.26;67765;1279;1016890;-64
2023/07/27 09:48:14;;;;;;;8.20;2.20;;;;;;;28.98;32.06;98522.71;67734;1279;1015794;-65
2023/07/27 09:51:16;;;;;;;6.20;2.00;;;;;;;29.14;32.73;98517.73;67711;1279;1016438;-65
2023/07/27 09:54:19;;;;;;;8.70;2.40;;;;;;;29.48;32.28;98519.60;67742;1279;1016370;-65
2023/07/27 09:57:21;;;;;;;5.90;1.90;;;;;;;29.90;32.01;98517.46;67758;1279;1016509;-63
2023/07/27 10:00:24;;;;;;;5.90;1.90;;;;;;;29.46;31.34;98523.88;67752;1279;1016470;-64
2023/07/27 10:03:26;;;;;;;5.70;1.80;;;;;;;29.94;31.59;98512.39;67725;1279;1016025;-66
2023/07/27 10:06:29;;;;;;;5.90;1.50;;;;;;;30.06;31.93;98515.65;67746;1279;1016546;-65
2023/07/27 10:09:32;;;;;;;7.60;2.10;;;;;;;30.09;30.97;98518.66;67730;1279;1016401;-66
2023/07/27 10:12:34;;;;;;;4.80;1.90;;;;;;;29.97;31.59;98516.31;67732;1279;1017180;-64
2023/07/27 10:15:37;;;;;;;6.00;2.10;;;;;;;30.04;30.93;98515.80;67741;1279;1016836;-64
2023/07/27 10:18:39;;;;;;;3.60;1.70;;;;;;;30.21;30.23;98510.96;67753;1279;1017220;-65
2023/07/27 10:21:42;;;;;;;6.50;1.90;;;;;;;30.14;29.68;98510.85;67733;1279;1016275;-67
2023/07/27 10:24:44;;;;;;;4.70;1.70;;;;;;;30.14;29.33;98499.20;67734;1279;1016947;-63
2023/07/27 10:27:47;;;;;;;4.70;1.80;;;;;;;30.14;29.69;98506.98;67756;1279;1017998;-65
2023/07/27 10:30:49;;;;;;;6.00;1.80;;;;;;;30.61;29.87;98497.05;67765;1279;1017737;-65
2023/07/27 10:33:52;;;;;;;3.70;2.00;;;;;;;30.62;30.00;98502.38;67753;1279;1017218;-66
2023/07/27 10:36:56;;;;;;;4.80;1.60;;;;;;;30.80;30.05;98497.89;67708;1279;1016306;-65
2023/07/27 10:39:59;;;;;;;9.80;2.40;;;;;;;31.02;29.86;98487.12;67772;1279;1018888;-66
2023/07/27 10:43:01;;;;;;;5.00;2.10;;;;;;;30.88;29.31;98489.27;67744;1279;1016429;-66
2023/07/27 10:46:04;;;;;;;6.00;1.90;;;;;;;30.35;29.87;98494.27;67734;1279;1016453;-66
2023/07/27 10:49:06;;;;;;;6.00;2.00;;;;;;;30.83;30.16;98495.59;67767;1279;1016978;-66
2023/07/27 10:52:09;;;;;;;9.00;2.10;;;;;;;31.38;29.29;98485.17;67745;1279;1016094;-65
2023/07/27 10:55:11;;;;;;;4.30;2.00;;;;;;;31.41;28.51;98480.64;67741;1279;1016528;-66
2023/07/27 10:58:14;;;;;;;7.00;2.30;;;;;;;31.74;27.94;98480.39;67797;1279;1016268;-66
2023/07/27 11:01:16;;;;;;;6.00;2.00;;;;;;;31.42;28.22;98472.92;67751;1279;1020132;-66
2023/07/27 11:04:18;;;;;;;3.90;1.70;;;;;;;30.49;29.48;98481.57;67741;1279;1016651;-66
2023/07/27 11:07:21;;;;;;;4.10;1.80;;;;;;;30.37;29.58;98474.91;67726;1279;1018694;-66
2023/07/27 11:10:23;;;;;;;6.00;2.10;;;;;;;30.55;28.77;98478.13;67769;1279;1016904;-66
2023/07/27 11:13:26;;;;;;;5.30;1.70;;;;;;;30.92;28.92;98465.50;67763;1279;1016251;-65
2023/07/27 11:16:28;;;;;;;8.70;2.20;;;;;;;31.83;29.27;98461.19;67757;1279;1016290;-66
2023/07/27 11:19:31;;;;;;;6.90;1.90;;;;;;;32.20;27.97;98462.20;67735;1279;1016466;-66
2023/07/27 11:22:34;;;;;;;6.10;2.10;;;;;;;32.06;27.57;98461.12;67728;1279;1015706;-66
2023/07/27 11:25:36;;;;;;;7.30;1.90;;;;;;;31.73;28.08;98464.03;67730;1279;1016323;-66
2023/07/27 11:28:40;;;;;;;10.20;2.40;;;;;;;31.07;28.96;98460.01;67766;1279;1016886;-66
2023/07/27 11:31:42;;;;;;;7.50;2.20;;;;;;;30.59;28.94;98463.45;67785;1279;1018246;-66
2023/07/27 11:34:45;;;;;;;9.50;2.50;;;;;;;30.94;28.90;98460.00;67745;1279;1017917;-64
2023/07/27 11:37:47;;;;;;;5.70;2.00;;;;;;;30.53;29.17;98460.42;67727;1279;1016185;-65
2023/07/27 11:40:50;;;;;;;6.80;2.20;;;;;;;30.57;29.28;98458.35;67757;1279;1016418;-66
2023/07/27 11:43:52;;;;;;;9.00;2.50;;;;;;;30.19;29.54;98453.67;67752;1279;1016695;-65
2023/07/27 11:46:55;;;;;;;8.60;2.30;;;;;;;30.19;30.54;98452.30;67775;1279;1017197;-64
2023/07/27 11:49:58;;;;;;;8.20;2.10;;;;;;;30.37;29.74;98449.25;67767;1279;1016660;-66
2023/07/27 11:53:02;;;;;;;5.50;2.10;;;;;;;30.40;29.59;98447.84;67802;1279;1016840;-66
2023/07/27 11:56:04;;;;;;;4.60;2.10;;;;;;;30.21;29.37;98448.02;67778;1277;1016411;-65
2023/07/27 11:59:07;;;;;;;6.40;2.10;;;;;;;29.95;29.80;98440.02;67737;1279;1016334;-65
2023/07/27 12:02:09;;;;;;;6.10;2.10;;;;;;;30.30;29.48;98434.61;67659;1279;1016300;-65
2023/07/27 12:05:11;;;;;;;6.20;2.20;;;;;;;30.25;29.14;98425.66;67736;1279;1018210;-66
2023/07/27 12:08:14;;;;;;;6.20;2.30;;;;;;;30.46;29.01;98429.01;67768;1279;1016595;-65
2023/07/27 12:11:16;;;;;;;6.80;2.10;;;;;;;30.24;29.28;98428.09;67757;1279;1015893;-66
2023/07/27 12:14:19;;;;;;;7.60;2.40;;;;;;;30.76;29.18;98411.23;67714;1279;1016426;-65
2023/07/27 12:17:21;;;;;;;6.40;2.20;;;;;;;31.53;28.24;98415.06;67731;1279;1016469;-66
2023/07/27 12:20:24;;;;;;;6.40;2.30;;;;;;;31.79;28.40;98413.20;67726;1279;1016455;-66
2023/07/27 12:23:29;;;;;;;5.30;2.10;;;;;;;31.48;27.90;98417.63;67686;1279;1016430;-66
2023/07/27 12:26:33;;;;;;;6.00;2.30;;;;;;;31.43;29.12;98412.25;67726;1279;1016387;-65
2023/07/27 12:29:35;;;;;;;5.00;1.90;;;;;;;31.73;28.27;98408.70;67710;1279;1016329;-65
2023/07/27 12:32:42;;;;;;;6.90;2.40;;;;;;;31.92;28.41;98406.78;67765;1279;1017149;-64
2023/07/27 12:35:45;;;;;;;6.60;2.00;;;;;;;32.12;28.84;98396.57;67756;1279;1016381;-64
2023/07/27 12:38:47;;;;;;;3.50;1.60;;;;;;;31.78;27.75;98414.67;67734;1279;1016873;-65
2023/07/27 12:41:50;;;;;;;8.90;2.10;;;;;;;31.51;28.23;98411.51;67737;1279;1016567;-65
2023/07/27 12:44:52;;;;;;;6.50;2.40;;;;;;;31.58;27.54;98402.36;67769;1279;1016519;-66
2023/07/27 12:47:55;;;;;;;6.40;2.10;;;;;;;31.75;28.45;98391.48;67806;1279;1016459;-64
2023/07/27 12:50:57;;;;;;;7.40;2.40;;;;;;;32.37;27.95;98388.64;67759;1279;1016488;-66
2023/07/27 12:54:04;;;;;;;8.20;2.40;;;;;;;32.49;27.40;98391.84;67668;1280;1019270;-65
2023/07/27 12:57:06;;;;;;;8.20;2.40;;;;;;;32.16;27.59;98387.31;67692;1281;1016656;-63
2023/07/27 13:00:11;;;;;;;6.50;2.00;;;;;;;31.63;26.69;98395.64;67677;1280;1016733;-65
2023/07/27 13:03:13;;;;;;;7.10;2.10;;;;;;;31.52;27.10;98388.43;67615;1281;1016400;-65
2023/07/27 13:06:16;;;;;;;9.50;2.50;;;;;;;31.17;27.50;98394.52;67638;1280;1016287;-64
2023/07/27 13:09:19;;;;;;;6.20;2.50;;;;;;;30.66;28.74;98394.52;67671;1280;1016423;-65
2023/07/27 13:12:22;;;;;;;5.60;2.20;;;;;;;30.16;28.22;98400.79;67631;1280;1016319;-64
2023/07/27 13:15:24;;;;;;;8.70;2.40;;;;;;;29.96;28.90;98399.56;67672;1280;1016345;-65
2023/07/27 13:18:27;;;;;;;5.70;2.20;;;;;;;29.75;29.22;98399.06;67699;1280;1017720;-65
2023/07/27 13:21:29;;;;;;;5.80;2.20;;;;;;;30.00;29.62;98392.90;67622;1280;1016538;-65
2023/07/27 13:24:32;;;;;;;8.40;3.20;;;;;;;30.01;29.65;98397.05;67624;1280;1016311;-65
2023/07/27 13:27:34;;;;;;;4.80;2.00;;;;;;;30.74;28.83;98387.75;67603;1280;1016592;-64
2023/07/27 13:30:36;;;;;;;5.40;1.90;;;;;;;30.62;29.19;98383.63;67558;1280;1016169;-65
2023/07/27 13:33:39;;;;;;;4.30;2.00;;;;;;;30.75;28.93;98376.41;67596;1280;1016218;-64
2023/07/27 13:36:41;;;;;;;6.30;2.20;;;;;;;32.05;28.63;98363.91;67586;1280;1019170;-65
2023/07/27 13:39:44;;;;;;;8.10;2.30;;;;;;;32.55;27.03;98360.38;67600;1280;1016250;-65
2023/07/27 13:42:47;;;;;;;8.90;2.40;;;;;;;32.26;27.84;98362.00;67613;1280;1016279;-64
2023/07/27 13:45:50;;;;;;;6.40;2.50;;;;;;;31.87;27.16;98367.95;67703;1280;1018515;-65
2023/07/27 13:48:52;;;;;;;10.40;2.50;;;;;;;31.63;28.32;98370.66;67658;1280;1016402;-65
2023/07/27 13:51:55;;;;;;;8.20;2.60;;;;;;;31.55;29.44;98366.81;67679;1280;1016259;-64
2023/07/27 13:54:57;;;;;;;8.40;2.50;;;;;;;32.29;29.19;98354.42;67724;1280;1016025;-64
2023/07/27 13:58:00;;;;;;;8.50;2.40;;;;;;;32.38;27.63;98357.95;67687;1280;1016583;-64